sensor_id;sensor_type;location;lat;lon;timestamp;temperature;humidity
37996;DHT22;23808;50.634;6.948;2022-08-27T00:01:50;20.90;99.90
37996;DHT22;23808;50.634;6.948;2022-08-27T00:05:51;20.90;99.90
37996;DHT22;23808;50.634;6.948;2022-08-27T00:09:51;20.90;99.90
37996;DHT22;23808;50.634;6.948;2022-08-27T00:13:52;20.80;99.90
37996;DHT22;23808;50.634;6.948;2022-08-27T00:17:53;20.80;99.90
37996;DHT22;23808;50.634;6.948;2022-08-27T00:21:53;20.70;99.90
37996;DHT22;23808;50.634;6.948;2022-08-27T00:25:55;20.60;99.90
37996;DHT22;23808;50.634;6.948;2022-08-27T00:29:55;20.50;99.90
37996;DHT22;23808;50.634;6.948;2022-08-27T00:33:57;20.50;99.90
37996;DHT22;23808;50.634;6.948;2022-08-27T00:37:57;20.40;99.90
37996;DHT22;23808;50.634;6.948;2022-08-27T00:41:58;20.30;99.90
37996;DHT22;23808;50.634;6.948;2022-08-27T00:46:22;20.30;99.90
37996;DHT22;23808;50.634;6.948;2022-08-27T00:50:31;20.20;99.90
37996;DHT22;23808;50.634;6.948;2022-08-27T00:54:32;20.20;99.90
37996;DHT22;23808;50.634;6.948;2022-08-27T00:58:37;20.10;99.90
37996;DHT22;23808;50.634;6.948;2022-08-27T01:02:38;20.10;99.90
37996;DHT22;23808;50.634;6.948;2022-08-27T01:06:38;20.10;99.90
37996;DHT22;23808;50.634;6.948;2022-08-27T01:10:40;20.10;99.90
37996;DHT22;23808;50.634;6.948;2022-08-27T01:14:43;20.10;99.90
37996;DHT22;23808;50.634;6.948;2022-08-27T01:18:44;20.10;99.90
37996;DHT22;23808;50.634;6.948;2022-08-27T01:26:49;20.00;99.90
37996;DHT22;23808;50.634;6.948;2022-08-27T01:30:50;20.00;99.90
37996;DHT22;23808;50.634;6.948;2022-08-27T01:34:51;20.00;99.90
37996;DHT22;23808;50.634;6.948;2022-08-27T01:38:53;19.90;99.90
37996;DHT22;23808;50.634;6.948;2022-08-27T01:42:55;19.90;99.90
37996;DHT22;23808;50.634;6.948;2022-08-27T01:46:56;19.90;99.90
37996;DHT22;23808;50.634;6.948;2022-08-27T01:50:57;19.80;99.90
37996;DHT22;23808;50.634;6.948;2022-08-27T01:54:58;19.70;99.90
37996;DHT22;23808;50.634;6.948;2022-08-27T01:58:59;19.70;99.90
37996;DHT22;23808;50.634;6.948;2022-08-27T02:02:59;19.60;99.90
37996;DHT22;23808;50.634;6.948;2022-08-27T02:07:00;19.60;99.90
37996;DHT22;23808;50.634;6.948;2022-08-27T02:11:00;19.50;99.90
37996;DHT22;23808;50.634;6.948;2022-08-27T02:15:02;19.40;99.90
37996;DHT22;23808;50.634;6.948;2022-08-27T02:19:03;19.40;99.90
37996;DHT22;23808;50.634;6.948;2022-08-27T02:23:04;19.40;99.90
37996;DHT22;23808;50.634;6.948;2022-08-27T02:27:05;19.30;99.90
37996;DHT22;23808;50.634;6.948;2022-08-27T02:31:06;19.30;99.90
37996;DHT22;23808;50.634;6.948;2022-08-27T02:35:07;19.30;99.90
37996;DHT22;23808;50.634;6.948;2022-08-27T02:39:08;19.30;99.90
37996;DHT22;23808;50.634;6.948;2022-08-27T02:43:09;19.30;99.90
37996;DHT22;23808;50.634;6.948;2022-08-27T02:47:10;19.30;99.90
37996;DHT22;23808;50.634;6.948;2022-08-27T02:51:11;19.30;99.90
37996;DHT22;23808;50.634;6.948;2022-08-27T02:55:12;19.30;99.90
37996;DHT22;23808;50.634;6.948;2022-08-27T02:59:13;19.30;99.90
37996;DHT22;23808;50.634;6.948;2022-08-27T03:03:14;19.30;99.90
37996;DHT22;23808;50.634;6.948;2022-08-27T03:07:15;19.30;99.90
37996;DHT22;23808;50.634;6.948;2022-08-27T03:11:15;19.30;99.90
37996;DHT22;23808;50.634;6.948;2022-08-27T03:15:17;19.30;99.90
37996;DHT22;23808;50.634;6.948;2022-08-27T03:19:18;19.20;99.90
37996;DHT22;23808;50.634;6.948;2022-08-27T03:23:21;19.30;99.90
37996;DHT22;23808;50.634;6.948;2022-08-27T03:27:22;19.20;99.90
37996;DHT22;23808;50.634;6.948;2022-08-27T03:31:24;19.20;99.90
37996;DHT22;23808;50.634;6.948;2022-08-27T03:35:28;19.20;99.90
37996;DHT22;23808;50.634;6.948;2022-08-27T03:39:29;19.20;99.90
37996;DHT22;23808;50.634;6.948;2022-08-27T03:43:30;19.30;99.90
37996;DHT22;23808;50.634;6.948;2022-08-27T03:47:31;19.30;99.90
37996;DHT22;23808;50.634;6.948;2022-08-27T03:51:31;19.20;99.90
37996;DHT22;23808;50.634;6.948;2022-08-27T03:55:32;19.20;99.90
37996;DHT22;23808;50.634;6.948;2022-08-27T03:59:33;19.20;99.90
37996;DHT22;23808;50.634;6.948;2022-08-27T04:03:34;19.20;99.90
37996;DHT22;23808;50.634;6.948;2022-08-27T04:07:34;19.20;99.90
37996;DHT22;23808;50.634;6.948;2022-08-27T04:11:35;19.20;99.90
37996;DHT22;23808;50.634;6.948;2022-08-27T04:15:41;19.20;99.90
37996;DHT22;23808;50.634;6.948;2022-08-27T04:19:43;19.20;99.90
37996;DHT22;23808;50.634;6.948;2022-08-27T04:23:44;19.20;99.90
37996;DHT22;23808;50.634;6.948;2022-08-27T04:27:44;19.20;99.90
37996;DHT22;23808;50.634;6.948;2022-08-27T04:31:46;19.20;99.90
37996;DHT22;23808;50.634;6.948;2022-08-27T04:35:55;19.20;99.90
37996;DHT22;23808;50.634;6.948;2022-08-27T04:39:56;19.20;99.90
37996;DHT22;23808;50.634;6.948;2022-08-27T04:44:01;19.20;99.90
37996;DHT22;23808;50.634;6.948;2022-08-27T04:48:02;19.10;99.90
37996;DHT22;23808;50.634;6.948;2022-08-27T04:52:03;19.10;99.90
37996;DHT22;23808;50.634;6.948;2022-08-27T04:56:04;19.10;99.90
37996;DHT22;23808;50.634;6.948;2022-08-27T05:00:05;19.10;99.90
37996;DHT22;23808;50.634;6.948;2022-08-27T05:04:09;19.00;99.90
37996;DHT22;23808;50.634;6.948;2022-08-27T05:08:10;19.00;99.90
37996;DHT22;23808;50.634;6.948;2022-08-27T05:12:12;19.00;99.90
37996;DHT22;23808;50.634;6.948;2022-08-27T05:16:16;19.00;99.90
37996;DHT22;23808;50.634;6.948;2022-08-27T05:20:18;19.10;99.90
37996;DHT22;23808;50.634;6.948;2022-08-27T05:24:20;19.10;99.90
37996;DHT22;23808;50.634;6.948;2022-08-27T05:28:22;19.10;99.90
37996;DHT22;23808;50.634;6.948;2022-08-27T05:32:23;19.10;99.90
37996;DHT22;23808;50.634;6.948;2022-08-27T05:36:29;19.10;99.90
37996;DHT22;23808;50.634;6.948;2022-08-27T05:40:29;19.10;99.90
37996;DHT22;23808;50.634;6.948;2022-08-27T05:44:30;19.10;99.90
37996;DHT22;23808;50.634;6.948;2022-08-27T05:48:31;19.10;99.90
37996;DHT22;23808;50.634;6.948;2022-08-27T05:52:34;19.00;99.90
37996;DHT22;23808;50.634;6.948;2022-08-27T05:56:36;19.00;99.90
37996;DHT22;23808;50.634;6.948;2022-08-27T06:00:37;19.00;99.90
37996;DHT22;23808;50.634;6.948;2022-08-27T06:04:56;19.00;99.90
37996;DHT22;23808;50.634;6.948;2022-08-27T06:08:56;19.00;99.90
37996;DHT22;23808;50.634;6.948;2022-08-27T06:12:57;19.00;99.90
37996;DHT22;23808;50.634;6.948;2022-08-27T06:17:01;19.00;99.90
37996;DHT22;23808;50.634;6.948;2022-08-27T06:21:02;18.90;99.90
37996;DHT22;23808;50.634;6.948;2022-08-27T06:25:03;18.90;99.90
37996;DHT22;23808;50.634;6.948;2022-08-27T06:29:05;18.90;99.90
37996;DHT22;23808;50.634;6.948;2022-08-27T06:33:06;19.00;99.90
37996;DHT22;23808;50.634;6.948;2022-08-27T06:37:07;19.00;99.90
37996;DHT22;23808;50.634;6.948;2022-08-27T06:41:09;19.00;99.90
37996;DHT22;23808;50.634;6.948;2022-08-27T06:45:10;19.00;99.90
37996;DHT22;23808;50.634;6.948;2022-08-27T06:49:11;19.10;99.90
37996;DHT22;23808;50.634;6.948;2022-08-27T06:53:12;19.10;99.90
37996;DHT22;23808;50.634;6.948;2022-08-27T06:57:12;19.20;99.90
37996;DHT22;23808;50.634;6.948;2022-08-27T07:01:26;19.20;99.90
37996;DHT22;23808;50.634;6.948;2022-08-27T07:05:27;19.30;99.90
37996;DHT22;23808;50.634;6.948;2022-08-27T07:09:28;19.30;99.90
37996;DHT22;23808;50.634;6.948;2022-08-27T07:13:31;19.40;99.90
37996;DHT22;23808;50.634;6.948;2022-08-27T07:17:31;19.40;99.90
37996;DHT22;23808;50.634;6.948;2022-08-27T07:21:32;19.40;99.90
37996;DHT22;23808;50.634;6.948;2022-08-27T07:25:33;19.40;99.90
37996;DHT22;23808;50.634;6.948;2022-08-27T07:29:34;19.40;99.90
